Time;durP1;ratioP1;P1;durP2;ratioP2;P2;SDS_P1;SDS_P2;PMS_P1;PMS_P2;Temp;Humidity;BMP_temperature;BMP_pressure;BME280_temperature;BME280_humidity;BME280_pressure;Samples;Min_cycle;Max_cycle;Signal;HPM_P1;HPM_P2
2021/05/17 00:00:47;;;;;;;0.67;0.40;;;;;;;15.04;100.00;96912.44;5015669;28;20259;-78
2021/05/17 00:03:15;;;;;;;0.97;0.50;;;;;;;15.10;100.00;96916.78;5005727;28;20216;-79
2021/05/17 00:05:42;;;;;;;0.40;0.37;;;;;;;14.67;100.00;96916.09;4995982;28;20254;-78
2021/05/17 00:08:10;;;;;;;5.30;0.90;;;;;;;14.97;100.00;96919.09;4996872;28;20206;-78
2021/05/17 00:10:38;;;;;;;1.00;0.67;;;;;;;15.00;100.00;96919.38;5006855;28;20276;-78
2021/05/17 00:13:05;;;;;;;1.17;0.67;;;;;;;14.56;100.00;96919.75;5015526;28;20206;-79
2021/05/17 00:15:32;;;;;;;0.83;0.40;;;;;;;14.77;100.00;96930.47;5001964;28;20229;-78
2021/05/17 00:17:59;;;;;;;0.90;0.50;;;;;;;14.72;100.00;96943.00;4995658;28;20209;-79
2021/05/17 00:20:26;;;;;;;1.33;0.60;;;;;;;14.83;100.00;96934.00;4995703;28;20560;-78
2021/05/17 00:22:55;;;;;;;1.50;0.40;;;;;;;14.75;100.00;96939.84;4999711;28;20223;-79
2021/05/17 00:25:24;;;;;;;0.40;0.40;;;;;;;14.77;100.00;96935.84;5014754;28;20732;-79
2021/05/17 00:27:52;;;;;;;1.00;0.50;;;;;;;14.67;100.00;96940.28;5000313;28;20266;-78
2021/05/17 00:30:20;;;;;;;2.73;0.77;;;;;;;14.71;100.00;96938.72;5013815;28;20250;-78
2021/05/17 00:32:47;;;;;;;1.60;0.50;;;;;;;14.95;100.00;96937.34;5014908;28;20236;-78
2021/05/17 00:35:14;;;;;;;1.37;0.50;;;;;;;14.69;100.00;96940.84;4998322;28;20226;-79
2021/05/17 00:37:42;;;;;;;1.20;0.60;;;;;;;14.79;100.00;96939.06;5015083;28;20205;-78
2021/05/17 00:40:10;;;;;;;0.93;0.50;;;;;;;14.77;100.00;96929.63;5001583;28;20205;-78
2021/05/17 00:42:38;;;;;;;1.33;0.40;;;;;;;14.74;100.00;96935.53;4994930;28;20260;-78
2021/05/17 00:45:08;;;;;;;0.80;0.43;;;;;;;14.78;100.00;96924.03;4994806;28;20239;-78
2021/05/17 00:47:38;;;;;;;1.73;0.50;;;;;;;14.95;100.00;96927.41;4995290;28;20213;-78
2021/05/17 00:50:09;;;;;;;0.50;0.40;;;;;;;14.65;100.00;96935.16;4995057;28;20227;-78
2021/05/17 00:52:36;;;;;;;2.43;0.70;;;;;;;14.92;100.00;96937.84;4994903;28;20869;-78
2021/05/17 00:55:04;;;;;;;2.63;1.13;;;;;;;14.42;100.00;96938.13;4994972;28;20229;-78
2021/05/17 00:57:31;;;;;;;1.17;0.40;;;;;;;14.70;100.00;96937.88;5006746;28;20666;-78
2021/05/17 01:00:00;;;;;;;0.40;0.40;;;;;;;14.48;100.00;96939.81;5014533;28;20207;-79
2021/05/17 01:02:27;;;;;;;0.30;0.30;;;;;;;14.56;100.00;96938.53;5014234;28;20207;-78
2021/05/17 01:04:54;;;;;;;1.60;0.80;;;;;;;14.82;100.00;96941.25;5013771;28;20233;-78
2021/05/17 01:07:25;;;;;;;2.30;0.40;;;;;;;14.82;100.00;96940.44;5002742;28;20290;-80
2021/05/17 01:09:52;;;;;;;0.80;0.50;;;;;;;14.90;100.00;96934.63;5001600;28;20197;-78
2021/05/17 01:12:19;;;;;;;2.17;0.90;;;;;;;14.91;100.00;96936.22;4999373;28;20322;-78
2021/05/17 01:14:48;;;;;;;0.87;0.50;;;;;;;14.82;100.00;96933.19;5001810;28;20320;-78
2021/05/17 01:17:15;;;;;;;0.80;0.60;;;;;;;14.69;100.00;96930.91;5004108;28;20203;-79
2021/05/17 01:19:55;;;;;;;0.77;0.53;;;;;;;14.85;100.00;96931.88;4994251;28;20205;-79
2021/05/17 01:22:24;;;;;;;1.17;0.30;;;;;;;14.56;100.00;96930.50;4994298;28;20192;-78
2021/05/17 01:24:52;;;;;;;1.80;0.30;;;;;;;14.42;100.00;96927.38;4994090;28;20229;-79
2021/05/17 01:27:19;;;;;;;2.30;0.43;;;;;;;14.50;100.00;96935.00;5013237;28;20202;-80
2021/05/17 01:29:46;;;;;;;0.40;0.40;;;;;;;14.62;100.00;96930.31;5005500;28;20203;-79
2021/05/17 01:32:14;;;;;;;1.40;0.50;;;;;;;14.23;100.00;96922.59;5013783;28;20291;-78
2021/05/17 01:34:41;;;;;;;0.47;0.40;;;;;;;14.26;100.00;96924.75;5012809;28;20204;-78
2021/05/17 01:37:08;;;;;;;0.50;0.37;;;;;;;14.50;100.00;96912.72;5013754;28;20611;-78
2021/05/17 01:39:36;;;;;;;0.70;0.30;;;;;;;14.27;100.00;96929.88;5013351;28;20576;-79
2021/05/17 01:42:05;;;;;;;0.43;0.40;;;;;;;14.16;100.00;96928.13;5013634;28;20384;-79
2021/05/17 01:44:38;;;;;;;1.73;0.47;;;;;;;14.29;100.00;96927.75;5009158;28;20227;-79
2021/05/17 01:47:05;;;;;;;0.40;0.30;;;;;;;14.24;100.00;96924.22;4993995;28;20262;-78
2021/05/17 01:49:33;;;;;;;1.37;0.40;;;;;;;14.25;100.00;96923.16;4993894;28;20582;-79
2021/05/17 01:52:01;;;;;;;1.23;0.37;;;;;;;14.43;100.00;96922.84;5001803;28;20247;-78
2021/05/17 01:54:31;;;;;;;0.53;0.40;;;;;;;14.23;100.00;96927.97;5013529;28;20207;-78
2021/05/17 01:56:58;;;;;;;2.90;0.40;;;;;;;14.17;100.00;96924.38;5001903;28;20204;-79
2021/05/17 01:59:29;;;;;;;2.20;0.50;;;;;;;14.71;100.00;96930.66;4993592;28;20262;-78
2021/05/17 02:01:56;;;;;;;1.10;0.40;;;;;;;14.38;100.00;96928.16;4993242;28;20208;-78
2021/05/17 02:04:24;;;;;;;1.00;0.50;;;;;;;14.19;100.00;96924.91;4993695;28;20204;-78
2021/05/17 02:06:52;;;;;;;0.47;0.40;;;;;;;14.32;100.00;96923.75;4994751;28;20291;-79
2021/05/17 02:09:19;;;;;;;1.43;0.30;;;;;;;14.52;100.00;96927.50;4993530;28;20597;-78
2021/05/17 02:11:46;;;;;;;1.17;0.30;;;;;;;14.23;100.00;96930.66;4993427;28;20598;-79
2021/05/17 02:14:13;;;;;;;0.50;0.43;;;;;;;14.19;100.00;96934.84;5011096;28;20216;-78
2021/05/17 02:16:41;;;;;;;1.23;0.60;;;;;;;14.68;100.00;96936.53;5012677;28;20274;-78
2021/05/17 02:19:09;;;;;;;0.60;0.50;;;;;;;14.08;100.00;96933.13;5011301;28;20692;-78
2021/05/17 02:21:36;;;;;;;0.63;0.47;;;;;;;14.47;100.00;96935.50;5000518;28;20680;-81
2021/05/17 02:24:05;;;;;;;0.77;0.30;;;;;;;14.49;100.00;96936.03;5005847;28;20257;-78
2021/05/17 02:26:32;;;;;;;0.70;0.50;;;;;;;14.63;100.00;96939.97;5012875;28;20228;-78
2021/05/17 02:28:59;;;;;;;2.73;0.50;;;;;;;14.51;100.00;96935.81;5012964;28;20211;-78
2021/05/17 02:31:26;;;;;;;0.30;0.30;;;;;;;14.40;100.00;96934.06;5012634;28;20220;-78
2021/05/17 02:33:54;;;;;;;0.40;0.33;;;;;;;14.17;100.00;96936.97;5005459;28;20204;-79
2021/05/17 02:36:22;;;;;;;0.90;0.50;;;;;;;14.20;100.00;96944.56;4993276;28;20581;-78
2021/05/17 02:38:49;;;;;;;1.13;0.40;;;;;;;14.52;100.00;96940.09;5003519;28;20290;-79
2021/05/17 02:41:16;;;;;;;0.70;0.40;;;;;;;14.77;100.00;96935.84;5012740;28;20203;-78
2021/05/17 02:43:43;;;;;;;1.73;0.80;;;;;;;14.77;100.00;96943.06;5012598;28;20224;-78
2021/05/17 02:46:11;;;;;;;1.57;0.60;;;;;;;14.90;100.00;96948.06;4995173;28;20739;-78
2021/05/17 02:48:41;;;;;;;2.40;0.40;;;;;;;14.83;100.00;96950.09;4993134;28;20207;-78
2021/05/17 02:51:11;;;;;;;1.33;0.50;;;;;;;14.68;100.00;96953.44;4993074;28;20209;-78
2021/05/17 02:54:03;;;;;;;1.93;0.30;;;;;;;14.66;100.00;96954.78;4998012;28;20203;-78
2021/05/17 02:56:35;;;;;;;0.80;0.40;;;;;;;14.71;100.00;96962.88;5008727;28;20287;-79
2021/05/17 02:59:03;;;;;;;0.67;0.40;;;;;;;14.55;100.00;96959.22;4993313;28;20705;-78
2021/05/17 03:01:37;;;;;;;1.37;0.57;;;;;;;14.50;100.00;96967.22;5012840;28;20206;-78
2021/05/17 03:04:12;;;;;;;1.97;0.53;;;;;;;14.89;100.00;96968.72;5013017;28;20188;-79
2021/05/17 03:06:42;;;;;;;0.77;0.50;;;;;;;14.81;100.00;96963.00;4999384;28;20223;-78
2021/05/17 03:09:10;;;;;;;1.43;0.60;;;;;;;14.45;100.00;96971.72;5009056;28;20211;-79
2021/05/17 03:11:39;;;;;;;1.30;0.30;;;;;;;14.62;100.00;96969.75;5012417;28;20227;-78
2021/05/17 03:14:09;;;;;;;0.97;0.40;;;;;;;14.79;100.00;96971.28;5003293;28;20286;-78
2021/05/17 03:16:38;;;;;;;2.27;0.50;;;;;;;14.51;100.00;96973.38;4992686;28;20233;-78
2021/05/17 03:19:05;;;;;;;1.70;0.50;;;;;;;14.46;100.00;96976.00;4993002;28;20262;-78
2021/05/17 03:21:32;;;;;;;0.50;0.33;;;;;;;14.47;100.00;96980.31;4992763;28;20210;-79
2021/05/17 03:24:00;;;;;;;0.30;0.30;;;;;;;14.27;100.00;96974.69;5000782;28;20208;-78
2021/05/17 03:26:28;;;;;;;0.73;0.40;;;;;;;14.23;100.00;96974.38;5013173;28;20608;-79
2021/05/17 03:28:55;;;;;;;3.23;0.50;;;;;;;14.21;100.00;96978.38;4994956;28;20546;-78
2021/05/17 03:31:22;;;;;;;1.77;0.53;;;;;;;14.27;100.00;96975.50;4997123;28;20250;-79
2021/05/17 03:33:49;;;;;;;0.67;0.30;;;;;;;14.20;100.00;96963.34;4997236;28;20679;-78
2021/05/17 03:36:16;;;;;;;1.00;0.50;;;;;;;14.20;100.00;96977.56;5014795;28;20229;-78
2021/05/17 03:38:42;;;;;;;3.53;0.70;;;;;;;14.43;100.00;96979.22;5010648;28;20232;-79
2021/05/17 03:41:10;;;;;;;0.30;0.30;;;;;;;14.43;100.00;96981.91;5013624;28;20200;-78
2021/05/17 03:43:37;;;;;;;0.87;0.30;;;;;;;14.34;100.00;96984.19;5011069;28;20218;-79
2021/05/17 03:46:04;;;;;;;0.80;0.40;;;;;;;14.10;100.00;96987.31;4997446;28;20243;-77
2021/05/17 03:48:30;;;;;;;1.73;0.50;;;;;;;14.31;100.00;96989.25;5005396;28;20729;-78
2021/05/17 03:50:57;;;;;;;0.73;0.33;;;;;;;14.43;100.00;96987.28;5019148;28;20211;-78
2021/05/17 03:53:24;;;;;;;0.30;0.30;;;;;;;14.48;100.00;96988.13;5018297;28;20211;-79
2021/05/17 03:55:51;;;;;;;0.73;0.30;;;;;;;14.45;100.00;96985.97;5008911;28;20250;-80
2021/05/17 03:58:18;;;;;;;0.73;0.50;;;;;;;14.63;100.00;97001.72;5014295;28;20214;-79
2021/05/17 04:00:45;;;;;;;1.33;0.40;;;;;;;14.50;100.00;96995.94;4996694;28;20208;-79
2021/05/17 04:03:15;;;;;;;1.43;0.50;;;;;;;14.04;100.00;97007.09;4996192;28;20678;-76
2021/05/17 04:05:54;;;;;;;2.03;0.57;;;;;;;14.25;100.00;97007.16;5012062;28;20711;-79
2021/05/17 04:13:48;;;;;;;0.93;0.30;;;;;;;14.60;100.00;97012.16;4996130;28;20332;-79
2021/05/17 04:16:15;;;;;;;0.60;0.47;;;;;;;14.87;100.00;97016.53;4995944;28;20232;-79
2021/05/17 04:18:44;;;;;;;2.33;0.83;;;;;;;14.86;100.00;97020.28;4995760;28;20252;-79
2021/05/17 04:21:10;;;;;;;0.90;0.47;;;;;;;14.79;100.00;97021.53;4995694;28;20210;-79
2021/05/17 04:23:37;;;;;;;0.93;0.40;;;;;;;14.87;100.00;97029.13;4995609;28;20213;-79
2021/05/17 04:26:04;;;;;;;0.60;0.23;;;;;;;14.67;100.00;97021.66;5005201;28;20315;-79
2021/05/17 04:28:31;;;;;;;1.60;0.50;;;;;;;14.69;100.00;97030.25;5015080;28;20215;-79
2021/05/17 04:30:59;;;;;;;0.53;0.30;;;;;;;14.83;100.00;97033.38;5014406;28;20657;-79
2021/05/17 04:33:25;;;;;;;1.73;0.40;;;;;;;14.55;100.00;97026.34;5015586;28;20231;-80
2021/05/17 04:35:52;;;;;;;0.40;0.30;;;;;;;14.81;100.00;97035.50;5014880;28;20238;-79
2021/05/17 04:38:19;;;;;;;0.37;0.37;;;;;;;15.32;98.43;97025.06;4996943;28;20274;-77
2021/05/17 04:40:47;;;;;;;0.67;0.40;;;;;;;15.35;96.23;97029.16;4999365;28;20204;-81
2021/05/17 04:43:14;;;;;;;1.70;0.40;;;;;;;15.36;97.22;97034.28;5010369;28;20230;-79
2021/05/17 04:45:40;;;;;;;1.47;0.40;;;;;;;15.75;93.75;97035.69;5005014;28;20577;-79
2021/05/17 04:48:09;;;;;;;1.33;0.50;;;;;;;15.02;96.91;97026.63;5006955;28;20244;-79
2021/05/17 04:50:36;;;;;;;0.43;0.30;;;;;;;14.93;99.01;97023.56;5003695;28;20216;-80
2021/05/17 04:53:02;;;;;;;1.07;0.40;;;;;;;15.31;93.49;97025.31;5004165;28;20230;-81
2021/05/17 04:55:29;;;;;;;2.87;0.50;;;;;;;15.51;91.44;97039.78;5008826;28;20328;-82
2021/05/17 04:57:56;;;;;;;3.00;0.40;;;;;;;15.35;90.54;97035.31;5011067;28;20226;-81
2021/05/17 05:00:23;;;;;;;0.47;0.40;;;;;;;15.43;90.93;97044.81;5013092;28;20201;-82
2021/05/17 05:02:50;;;;;;;0.80;0.40;;;;;;;15.25;92.18;97039.78;5003785;28;20291;-84
2021/05/17 05:05:18;;;;;;;0.40;0.37;;;;;;;15.07;92.78;97040.09;5006984;28;20227;-81
2021/05/17 05:07:45;;;;;;;1.67;0.40;;;;;;;15.22;92.04;97045.63;5011909;28;20690;-79
2021/05/17 05:10:12;;;;;;;1.27;0.60;;;;;;;14.67;95.50;97053.06;5012186;28;20300;-77
2021/05/17 05:12:39;;;;;;;3.30;0.60;;;;;;;15.01;94.74;97049.19;5002031;28;20222;-78
2021/05/17 05:15:07;;;;;;;1.53;0.53;;;;;;;15.41;88.42;97055.00;5002051;28;20316;-78
2021/05/17 05:17:34;;;;;;;0.97;0.40;;;;;;;15.63;86.60;97061.94;5005495;28;20235;-78
2021/05/17 05:20:01;;;;;;;0.77;0.30;;;;;;;15.59;85.08;97057.31;5008542;28;20789;-81
2021/05/17 05:22:29;;;;;;;1.93;0.40;;;;;;;15.47;83.82;97057.50;5001938;28;20258;-76
2021/05/17 05:24:57;;;;;;;1.50;0.50;;;;;;;15.64;83.22;97062.75;5010841;28;20291;-79
2021/05/17 05:27:27;;;;;;;1.07;0.40;;;;;;;15.89;81.56;97058.41;5005321;28;20203;-82
2021/05/17 05:30:06;;;;;;;1.17;0.50;;;;;;;15.51;82.21;97065.88;5006046;28;20212;-81
2021/05/17 05:32:35;;;;;;;1.23;0.80;;;;;;;15.84;80.03;97055.69;5008302;28;20312;-78
2021/05/17 05:35:02;;;;;;;1.80;0.30;;;;;;;16.11;78.80;97067.19;5001841;28;20229;-82
2021/05/17 05:37:30;;;;;;;0.37;0.37;;;;;;;16.05;77.83;97062.03;5004886;28;20215;-81
2021/05/17 05:39:57;;;;;;;0.80;0.50;;;;;;;15.82;77.42;97067.75;4994128;28;20202;-79
2021/05/17 05:42:24;;;;;;;4.97;0.40;;;;;;;16.05;76.24;97064.72;4999538;28;20625;-81
2021/05/17 05:44:51;;;;;;;0.53;0.40;;;;;;;16.25;76.10;97070.22;5005665;28;20242;-80
2021/05/17 05:47:18;;;;;;;2.10;0.30;;;;;;;16.46;74.52;97072.03;4999362;28;20639;-81
2021/05/17 05:49:46;;;;;;;1.07;0.37;;;;;;;16.14;75.53;97082.00;5004622;28;20211;-81
2021/05/17 05:52:13;;;;;;;0.30;0.30;;;;;;;16.23;74.86;97075.91;5011472;28;20222;-80
2021/05/17 05:54:41;;;;;;;0.20;0.20;;;;;;;16.46;74.31;97080.13;5009961;28;20217;-80
2021/05/17 05:57:08;;;;;;;1.50;0.50;;;;;;;16.06;76.49;97083.28;5008203;28;20567;-79
2021/05/17 05:59:36;;;;;;;0.70;0.50;;;;;;;15.97;76.63;97081.34;5005386;28;20253;-79
2021/05/17 06:02:03;;;;;;;0.77;0.40;;;;;;;16.05;78.56;97080.88;5008170;28;20196;-80
2021/05/17 06:04:30;;;;;;;3.20;0.50;;;;;;;16.78;76.59;97086.22;5006403;28;20228;-80
2021/05/17 06:06:57;;;;;;;2.43;0.60;;;;;;;17.15;71.38;97090.41;5001968;28;20211;-77
2021/05/17 06:09:24;;;;;;;2.80;0.40;;;;;;;17.24;70.20;97096.94;5005626;28;20447;-79
2021/05/17 06:11:53;;;;;;;0.40;0.40;;;;;;;16.08;75.88;97086.56;5015025;28;20230;-84
2021/05/17 06:14:22;;;;;;;1.17;0.30;;;;;;;16.15;75.43;97092.50;4996583;28;20207;-80
2021/05/17 06:16:49;;;;;;;0.20;0.20;;;;;;;16.79;73.32;97104.81;4999226;28;20719;-82
2021/05/17 06:19:16;;;;;;;4.00;0.80;;;;;;;17.15;72.10;97105.78;5007922;28;20238;-80
2021/05/17 06:21:44;;;;;;;1.97;0.60;;;;;;;17.26;70.30;97112.81;5006558;28;20205;-80
2021/05/17 06:24:13;;;;;;;3.83;0.40;;;;;;;17.24;70.01;97117.69;5012465;28;20195;-81
2021/05/17 06:26:40;;;;;;;2.27;0.50;;;;;;;16.72;72.71;97114.22;5001735;28;20228;-80
2021/05/17 06:29:09;;;;;;;2.93;0.30;;;;;;;16.55;71.58;97121.63;5010536;28;20272;-81
2021/05/17 06:31:40;;;;;;;3.60;0.50;;;;;;;17.31;68.94;97127.16;5015726;28;20221;-80
2021/05/17 06:34:08;;;;;;;4.50;0.70;;;;;;;17.06;71.55;97132.44;5002050;28;20202;-80
2021/05/17 06:36:35;;;;;;;1.00;0.40;;;;;;;16.81;69.97;97136.91;5010562;28;20259;-82
2021/05/17 06:39:05;;;;;;;0.40;0.30;;;;;;;17.56;68.28;97132.66;5021227;28;20263;-81
2021/05/17 06:41:33;;;;;;;0.40;0.40;;;;;;;16.87;72.54;97135.84;5015914;28;20204;-82
2021/05/17 06:44:01;;;;;;;2.10;0.50;;;;;;;16.80;71.43;97133.38;5019905;28;20267;-81
2021/05/17 06:46:29;;;;;;;4.20;0.70;;;;;;;17.57;69.85;97141.53;5008389;28;20279;-80
2021/05/17 06:48:56;;;;;;;3.47;0.60;;;;;;;18.11;66.05;97145.41;5006394;28;20288;-82
2021/05/17 06:51:25;;;;;;;4.90;0.40;;;;;;;17.50;68.62;97147.22;5003719;28;20651;-83
2021/05/17 06:53:56;;;;;;;0.53;0.40;;;;;;;17.65;67.63;97157.22;5007168;28;20228;-80
2021/05/17 06:56:26;;;;;;;3.50;0.80;;;;;;;17.36;69.51;97156.00;5001027;28;20232;-81
2021/05/17 06:58:56;;;;;;;1.80;1.07;;;;;;;17.64;67.83;97158.31;5002150;28;20944;-81
2021/05/17 07:01:24;;;;;;;1.27;0.40;;;;;;;17.79;69.40;97152.94;5006846;28;20631;-84
2021/05/17 07:03:54;;;;;;;0.53;0.43;;;;;;;17.75;69.14;97160.75;5005277;28;20216;-82
2021/05/17 07:06:25;;;;;;;2.70;0.40;;;;;;;17.68;71.58;97160.19;5008964;28;20236;-83
2021/05/17 07:11:45;;;;;;;3.33;0.50;;;;;;;17.67;71.73;97157.75;5019319;28;20286;-83
2021/05/17 07:14:12;;;;;;;1.70;0.63;;;;;;;17.40;72.68;97160.66;5008159;28;20214;-82
2021/05/17 07:16:39;;;;;;;2.43;0.63;;;;;;;17.28;74.48;97153.84;5007277;28;20224;-84
2021/05/17 07:19:07;;;;;;;3.43;0.50;;;;;;;16.56;78.93;97156.38;5012559;28;20204;-84
2021/05/17 07:24:20;;;;;;;2.50;0.47;;;;;;;17.10;75.90;97159.66;5009231;28;20210;-82
2021/05/17 07:26:48;;;;;;;3.60;0.50;;;;;;;16.69;76.62;97165.91;5009828;28;20235;-82
2021/05/17 07:29:16;;;;;;;0.37;0.37;;;;;;;16.79;75.73;97169.50;5015111;28;20214;-82
2021/05/17 07:31:43;;;;;;;1.33;0.40;;;;;;;16.61;77.25;97166.41;5016105;28;20611;-83
2021/05/17 07:34:10;;;;;;;3.10;0.57;;;;;;;17.40;72.94;97163.34;5017496;28;20215;-83
2021/05/17 07:36:37;;;;;;;0.30;0.30;;;;;;;17.40;72.34;97163.34;5009815;28;20316;-84
2021/05/17 07:39:06;;;;;;;3.50;0.40;;;;;;;17.47;70.14;97171.22;5024394;28;20282;-82
2021/05/17 07:41:33;;;;;;;2.13;0.50;;;;;;;17.56;69.78;97175.81;5026761;28;20197;-81
2021/05/17 07:44:00;;;;;;;3.60;0.57;;;;;;;17.40;68.19;97176.84;5034598;28;20254;-81
2021/05/17 07:46:26;;;;;;;1.03;0.40;;;;;;;17.50;68.41;97179.56;5026956;28;20254;-83
2021/05/17 07:49:11;;;;;;;1.50;0.53;;;;;;;17.84;64.74;97188.84;5025912;28;20211;-82
2021/05/17 07:51:42;;;;;;;2.07;0.70;;;;;;;17.54;62.78;97190.66;5021396;28;20229;-83
2021/05/17 07:54:10;;;;;;;0.87;0.40;;;;;;;17.88;59.81;97192.63;5013569;28;20207;-82
2021/05/17 07:56:37;;;;;;;2.03;0.50;;;;;;;17.69;62.04;97204.19;5021563;28;20255;-84
2021/05/17 07:59:04;;;;;;;1.73;0.57;;;;;;;17.86;60.58;97204.78;5021749;28;20211;-81
2021/05/17 08:01:31;;;;;;;0.50;0.40;;;;;;;18.07;59.64;97209.94;5030460;28;20998;-82
2021/05/17 08:03:58;;;;;;;1.57;0.40;;;;;;;18.16;57.96;97221.03;5016967;28;20204;-79
2021/05/17 08:06:25;;;;;;;0.30;0.30;;;;;;;17.60;60.23;97217.38;5016616;28;20234;-81
2021/05/17 08:08:53;;;;;;;1.00;0.47;;;13.10;1.00;;;17.95;59.99;97219.38;5013712;28;20218;-80
2021/05/17 08:11:21;;;;;;;0.53;0.30;;;13.00;1.00;;;17.77;60.45;97217.97;5014350;28;20253;-81
2021/05/17 08:13:48;;;;;;;0.80;0.50;;;13.00;1.00;;;18.47;57.72;97212.75;5011942;28;20249;-81
2021/05/17 08:16:15;;;;;;;3.00;0.50;;;13.30;1.00;;;19.49;53.64;97215.00;5013779;28;20233;-82
2021/05/17 08:18:43;;;;;;;0.60;0.37;;;13.90;1.00;;;19.52;54.15;97214.47;5008236;28;20215;-82
2021/05/17 08:21:11;;;;;;;0.77;0.37;;;14.40;1.00;;;19.58;54.53;97213.38;5008915;28;20622;-81
2021/05/17 08:23:38;;;;;;;1.17;0.40;;;14.80;1.00;;;19.75;52.09;97208.44;5006184;28;20254;-81
2021/05/17 08:26:07;;;;;;;0.33;0.33;;;14.70;1.00;;;19.20;52.98;97214.81;5005566;28;20228;-78
2021/05/17 08:28:34;;;;;;;4.33;0.40;;;14.50;1.00;;;19.41;52.89;97219.09;4998460;28;20287;-79
2021/05/17 08:31:01;;;;;;;1.50;0.50;;;14.40;1.00;;;19.02;53.57;97210.00;5013124;28;20226;-78
2021/05/17 08:33:29;;;;;;;0.30;0.30;;;13.80;1.00;;;17.97;55.70;97211.81;5000621;28;20230;-80
2021/05/17 08:35:56;;;;;;;1.87;0.63;;;13.80;1.00;;;18.59;54.28;97210.56;5010933;28;20227;-81
2021/05/17 08:38:24;;;;;;;3.63;0.80;;;13.60;1.00;;;18.32;53.79;97214.56;5013076;28;20199;-80
2021/05/17 08:40:51;;;;;;;1.20;0.50;;;13.50;1.00;;;19.74;50.73;97214.91;5005426;28;20206;-82
2021/05/17 08:43:20;;;;;;;1.10;0.40;;;13.90;1.00;;;19.60;50.97;97222.81;5010700;28;20220;-79
2021/05/17 08:45:47;;;;;;;5.07;0.80;;;14.20;1.00;;;20.52;47.42;97219.34;5009640;28;20351;-81
2021/05/17 08:48:13;;;;;;;1.43;0.60;;;14.90;1.00;;;20.44;47.32;97231.59;5009240;28;20528;-80
2021/05/17 08:50:51;;;;;;;1.57;0.53;;;15.40;1.00;;;20.57;46.02;97230.16;5001183;28;20211;-81
2021/05/17 08:53:23;;;;;;;1.50;0.80;;;15.50;1.00;;;20.84;44.58;97235.91;5135221;22;20240;-82
2021/05/17 08:55:50;;;;;;;1.77;1.10;;;15.60;1.00;;;19.67;49.13;97241.47;5030724;28;20232;-81
2021/05/17 08:58:20;;;;;;;5.63;0.60;;;15.10;1.00;;;20.17;48.65;97246.69;5035919;28;20283;-83
2021/05/17 09:00:47;;;;;;;1.70;0.50;;;15.00;1.00;;;20.02;50.18;97238.63;5034854;28;20215;-83
2021/05/17 09:03:14;;;;;;;2.33;0.83;;;15.00;1.00;;;20.01;51.36;97239.72;5036169;28;20228;-83
2021/05/17 09:05:47;;;;;;;1.17;0.53;;;14.90;1.00;;;19.57;50.73;97244.22;5015408;28;20202;-80
2021/05/17 09:08:15;;;;;;;5.43;0.53;;;14.80;1.00;;;20.26;49.48;97239.59;5021853;28;20287;-80
2021/05/17 09:10:42;;;;;;;0.73;0.50;;;15.20;1.00;;;20.13;50.09;97245.63;5027326;28;20242;-79
2021/05/17 09:13:12;;;;;;;0.87;0.30;;;15.30;1.00;;;20.04;50.56;97233.72;5028474;28;20340;-80
2021/05/17 09:15:41;;;;;;;0.83;0.50;;;15.30;1.00;;;20.04;53.23;97228.28;5017483;28;20274;-81
2021/05/17 09:18:11;;;;;;;1.53;0.57;;;15.20;1.00;;;20.05;50.50;97240.75;5016696;28;20240;-80
2021/05/17 09:20:40;;;;;;;2.53;0.63;;;15.00;1.00;;;19.37;53.90;97233.47;5025958;28;20211;-79
2021/05/17 09:23:15;;;;;;;1.37;0.40;;;14.70;1.00;;;19.39;55.12;97226.69;5031112;28;20235;-81
2021/05/17 09:26:03;;;;;;;0.70;0.50;;;14.50;1.00;;;20.02;53.50;97228.56;5023597;28;20249;-81
2021/05/17 09:28:32;;;;;;;1.17;0.50;;;14.80;1.00;;;20.60;51.89;97221.44;5014359;28;20201;-82
2021/05/17 09:31:06;;;;;;;0.30;0.30;;;15.40;1.00;;;20.77;49.86;97227.28;5020122;28;20254;-81
2021/05/17 09:33:44;;;;;;;0.67;0.30;;;15.50;1.00;;;19.66;53.66;97216.28;5008238;28;20246;-81
2021/05/17 09:36:29;;;;;;;0.40;0.40;;;15.30;1.00;;;20.78;48.93;97226.19;5019792;28;20251;-80
2021/05/17 09:39:02;;;;;;;2.10;0.43;;;15.50;1.00;;;19.68;50.83;97243.91;5017187;28;20577;-80
2021/05/17 09:41:41;;;;;;;2.03;0.47;;;15.10;1.00;;;19.96;49.59;97231.63;5031763;22;20247;-80
2021/05/17 09:44:09;;;;;;;0.30;0.30;;;15.20;1.00;;;20.00;48.76;97228.06;5058190;28;20293;-78
2021/05/17 09:47:00;;;;;;;1.20;0.60;;;15.40;1.00;;;20.13;49.11;97238.31;5043311;28;20212;-80
2021/05/17 09:49:32;;;;;;;0.93;0.50;;;15.20;1.00;;;19.83;49.25;97222.19;5041155;28;20200;-79
2021/05/17 09:52:12;;;;;;;2.20;0.60;;;15.10;1.00;;;20.32;49.41;97238.47;5044058;28;20307;-80
2021/05/17 09:55:05;;;;;;;0.67;0.40;;;15.10;1.00;;;20.34;49.79;97236.28;5048891;28;20207;-80
2021/05/17 09:57:35;;;;;;;0.80;0.40;;;15.20;1.00;;;19.73;51.04;97238.47;5040859;28;20275;-78
2021/05/17 10:00:12;;;;;;;0.83;0.50;;;14.90;1.00;;;19.46;52.89;97242.66;5039037;28;20229;-80
2021/05/17 10:02:43;;;;;;;0.93;0.47;;;14.70;1.00;;;19.13;54.35;97230.53;5039820;28;20233;-81
2021/05/17 10:05:23;;;;;;;0.80;0.53;;;14.30;1.00;;;19.92;51.23;97233.25;5036030;28;20249;-80
2021/05/17 10:07:53;;;;;;;0.30;0.30;;;14.50;1.00;;;19.58;51.36;97238.53;5040494;28;20297;-80
2021/05/17 10:10:23;;;;;;;0.37;0.37;;;14.70;1.00;;;19.87;50.66;97225.94;5043953;28;20203;-80
2021/05/17 10:12:52;;;;;;;0.53;0.30;;;14.90;1.00;;;20.50;48.14;97226.94;5041986;28;20306;-80
2021/05/17 10:15:19;;;;;;;2.77;0.80;;;15.20;1.00;;;20.46;48.68;97231.34;5042993;28;20278;-81
2021/05/17 10:17:47;;;;;;;0.47;0.23;;;15.30;1.00;;;20.09;48.48;97237.25;5042634;28;20230;-79
2021/05/17 10:20:20;;;;;;;0.60;0.43;;;15.50;1.00;;;20.40;49.84;97214.28;5041523;28;20595;-79
2021/05/17 10:22:49;;;;;;;1.60;0.30;;;15.50;1.00;;;20.88;46.68;97229.59;5046030;28;20218;-80
2021/05/17 10:25:23;;;;;;;0.70;0.40;;;15.90;1.00;;;20.97;45.68;97216.28;5038839;28;20280;-81
2021/05/17 10:27:53;;;;;;;0.60;0.40;;;15.90;1.00;;;20.65;46.42;97229.53;5047302;28;20210;-80
2021/05/17 10:30:24;;;;;;;0.60;0.47;;;15.90;1.00;;;19.54;51.24;97218.53;5042279;28;20197;-80
2021/05/17 10:32:57;;;;;;;0.97;0.40;;;15.20;1.00;;;19.60;51.55;97232.88;5036129;28;20237;-80
2021/05/17 10:35:26;;;;;;;3.23;0.50;;;15.00;1.00;;;19.20;56.26;97212.09;5050535;28;20663;-82
2021/05/17 10:38:20;;;;;;;0.77;0.30;;;14.70;1.00;;;18.82;61.66;97236.22;5050942;28;20210;-80
2021/05/17 10:40:49;;;;;;;1.80;0.70;;;14.00;1.00;;;18.04;80.99;97223.19;5052231;28;20229;-82
2021/05/17 10:44:00;;;;;;;1.37;0.50;;;;;;;17.25;100.00;97213.66;5041996;28;20226;-81
2021/05/17 10:46:38;;;;;;;2.33;0.90;;;;;;;16.47;100.00;97217.19;5045412;28;20209;-81
2021/05/17 10:49:29;;;;;;;0.53;0.50;;;;;;;16.48;100.00;97210.75;5047765;28;20203;-80
2021/05/17 10:52:12;;;;;;;4.33;0.63;;;;;;;16.28;100.00;97207.03;5038198;28;20211;-81
2021/05/17 10:54:42;;;;;;;1.53;0.40;;;;;;;17.36;100.00;97193.75;5045001;28;20333;-82
2021/05/17 10:57:19;;;;;;;1.97;0.47;;;;;;;17.61;100.00;97185.81;5058062;28;20202;-82
2021/05/17 11:02:34;;;;;;;2.00;1.03;;;;;;;18.65;100.00;97190.56;5040439;28;20609;-80
2021/05/17 11:05:04;;;;;;;3.20;0.60;;;;;;;19.06;98.32;97177.78;5037760;28;20226;-80
2021/05/17 11:07:32;;;;;;;1.90;0.70;;;;;;;19.13;94.49;97181.00;5046318;28;20686;-81
2021/05/17 11:10:11;;;;;;;1.67;0.60;;;14.00;1.00;;;19.71;87.33;97196.53;5052256;28;20215;-78
2021/05/17 11:13:13;;;;;;;1.70;0.70;;;14.30;1.00;;;19.97;81.29;97189.88;5045448;28;20214;-78
2021/05/17 11:16:03;;;;;;;2.23;0.80;;;14.60;1.00;;;19.84;76.32;97207.56;5051502;28;20197;-78
2021/05/17 11:18:44;;;;;;;1.40;0.80;;;14.70;1.00;;;20.28;77.59;97200.28;5046674;28;20598;-71
2021/05/17 11:21:26;;;;;;;3.17;0.40;;;14.80;1.00;;;20.14;81.54;97196.59;5058596;28;20209;-74
2021/05/17 11:24:08;;;;;;;2.20;0.50;;;14.60;1.00;;;19.72;80.67;97198.97;5058855;28;20246;-78
2021/05/17 11:26:58;;;;;;;4.33;0.80;;;14.40;1.00;;;18.82;84.88;97196.50;5056464;28;20244;-80
2021/05/17 11:29:33;;;;;;;1.27;0.60;;;14.00;1.00;;;18.17;87.30;97201.88;5059748;28;20217;-80
2021/05/17 11:32:13;;;;;;;0.67;0.50;;;13.50;1.00;;;18.16;86.05;97204.84;5047231;28;20225;-78
2021/05/17 11:35:00;;;;;;;2.13;0.60;;;13.20;1.00;;;17.91;86.10;97215.59;5064029;28;20230;-77
2021/05/17 11:37:30;;;;;;;3.03;0.60;;;13.10;1.00;;;18.18;85.69;97206.19;5062058;28;20206;-80